Ragan Village, North Carolina
Current Conditions -  °F | °C
As of 1:54 PM on Saturday 25 Oct 2014 (Local Time) from KAKH Reporting Station
Clear Clear  
Wind Chill: 72°   Ceiling: Unl
Heat Index: 72°   Visibility: 10mi
Dew Point: 38°   Wind: 3mph
Humidity: 29%   Direction: NA
Pressure: 29.99"   Gusts: NA
Location:  35.2631°N, 81.1487°W
Report Text: KAKH 251754Z AUTO VRB03KT 10SM CLR 22/03 A2999 RMK AO2 SLP154 T02220033 10222 20050 58019
Loading
Personal Weather Stations






























Interactive Weather Map New forecast layout! Learn more

10-Day Weather Forecast

Advertisements
Track Severe Weather on mobile